Time;durP1;ratioP1;P1;durP2;ratioP2;P2;SDS_P1;SDS_P2;PMS_P1;PMS_P2;Temp;Humidity;BMP_temperature;BMP_pressure;BME280_temperature;BME280_humidity;BME280_pressure;Samples;Min_cycle;Max_cycle;Signal;HPM_P1;HPM_P2
2022/01/19 00:00:23;;;;;;;45.40;24.38;;;;;;;;;;5105727;28;20044;-75
2022/01/19 00:02:50;;;;;;;43.28;23.80;;;;;;;;;;5107913;28;20060;-75
2022/01/19 00:05:16;;;;;;;48.30;24.13;;;;;;;;;;5097957;28;20408;-75
2022/01/19 00:07:42;;;;;;;45.10;25.33;;;;;;;;;;5095018;28;20040;-75
2022/01/19 00:10:11;;;;;;;45.58;24.73;;;5.00;99.90;;;;;;5094535;28;20043;-75
2022/01/19 00:12:38;;;;;;;44.20;24.25;;;5.10;99.90;;;;;;5113074;28;20040;-75
2022/01/19 00:15:06;;;;;;;44.42;24.40;;;4.30;99.90;;;;;;5115326;28;20047;-75
2022/01/19 00:17:32;;;;;;;53.83;24.67;;;4.80;99.90;;;;;;5096945;28;20152;-74
2022/01/19 00:19:58;;;;;;;48.25;25.80;;;;;;;;;;5094598;28;20130;-75
2022/01/19 00:22:24;;;;;;;46.28;24.45;;;;;;;;;;5110000;28;20180;-75
2022/01/19 00:24:50;;;;;;;48.53;23.55;;;;;;;;;;5114573;28;20031;-74
2022/01/19 00:27:16;;;;;;;47.85;24.08;;;;;;;;;;5112689;28;20036;-75
2022/01/19 00:29:42;;;;;;;45.33;25.02;;;;;;;;;;5114375;28;20051;-75
2022/01/19 00:32:08;;;;;;;50.10;23.88;;;;;;;;;;5102518;28;20177;-75
2022/01/19 00:34:34;;;;;;;47.55;24.45;;;;;;;;;;5077453;28;20032;-75
2022/01/19 00:37:00;;;;;;;47.55;22.75;;;;;;;;;;5096455;28;20036;-75
2022/01/19 00:39:31;;;;;;;50.47;24.67;;;;;;;;;;5094962;28;20036;-75
2022/01/19 00:41:57;;;;;;;54.00;24.95;;;;;;;;;;5102621;28;20043;-75
2022/01/19 00:44:23;;;;;;;53.20;24.48;;;;;;;;;;5097110;28;20082;-75
2022/01/19 00:46:49;;;;;;;51.17;24.33;;;;;;;;;;5106691;28;20040;-75
2022/01/19 00:49:15;;;;;;;46.50;22.65;;;;;;;;;;5092808;28;20035;-75
2022/01/19 00:51:41;;;;;;;46.30;22.73;;;;;;;;;;5108485;28;20031;-75
2022/01/19 00:54:07;;;;;;;45.17;22.30;;;;;;;;;;5093013;28;20040;-75
2022/01/19 00:56:34;;;;;;;48.60;20.55;;;5.00;99.90;;;;;;5096457;28;20126;-75
2022/01/19 00:59:00;;;;;;;40.03;19.15;;;4.90;99.90;;;;;;5099849;28;20089;-75
2022/01/19 01:01:26;;;;;;;37.95;19.40;;;;;;;;;;5064358;28;20111;-75
2022/01/19 01:03:53;;;;;;;46.92;21.73;;;;;;;;;;5096663;28;20039;-75
2022/01/19 01:06:20;;;;;;;42.78;21.15;;;4.90;99.90;;;;;;5107207;28;20594;-74
2022/01/19 01:08:46;;;;;;;46.70;21.63;;;5.00;99.90;;;;;;5102258;28;20036;-74
2022/01/19 01:11:12;;;;;;;43.88;21.67;;;;;;;;;;5093651;28;20114;-74
2022/01/19 01:16:33;;;;;;;48.22;20.33;;;4.90;99.90;;;;;;5108115;28;20036;-75
2022/01/19 01:19:01;;;;;;;61.90;23.05;;;5.00;99.90;;;;;;5093382;28;20039;-75
2022/01/19 01:21:27;;;;;;;43.95;21.88;;;;;;;;;;5093362;28;20054;-74
2022/01/19 01:23:53;;;;;;;46.28;21.38;;;;;;;;;;5108351;28;20044;-74
2022/01/19 01:26:19;;;;;;;42.67;21.95;;;;;;;;;;5059563;28;20032;-74
2022/01/19 01:28:45;;;;;;;35.50;19.38;;;;;;;;;;5092494;28;20466;-75
2022/01/19 01:31:11;;;;;;;36.70;18.55;;;;;;;;;;5093240;28;20058;-75
2022/01/19 01:33:39;;;;;;;42.63;18.98;;;5.50;99.90;;;;;;5092895;28;20040;-74
2022/01/19 01:36:05;;;;;;;40.75;19.48;;;;;;;;;;5092591;28;20106;-75
2022/01/19 01:38:31;;;;;;;44.85;19.02;;;;;;;;;;5102657;28;20072;-75
2022/01/19 01:40:57;;;;;;;40.55;19.42;;;;;;;;;;5093029;28;20048;-74
2022/01/19 01:43:23;;;;;;;40.45;21.38;;;;;;;;;;5101327;28;20395;-74
2022/01/19 01:45:53;;;;;;;45.15;21.35;;;;;;;;;;5112996;28;20039;-74
2022/01/19 01:48:23;;;;;;;45.10;22.55;;;;;;;;;;5087334;28;20082;-74
2022/01/19 01:53:35;;;;;;;51.72;24.77;;;4.70;99.90;;;;;;5086348;28;20048;-74
2022/01/19 01:56:04;;;;;;;51.60;23.83;;;4.70;99.90;;;;;;5092716;28;20089;-74
2022/01/19 01:58:37;;;;;;;50.58;24.75;;;4.80;99.90;;;;;;5103423;28;20055;-74
2022/01/19 02:01:03;;;;;;;56.45;24.23;;;;;;;;;;5112866;28;20048;-74
2022/01/19 02:03:37;;;;;;;50.83;24.20;;;;;;;;;;5085690;28;20044;-74
2022/01/19 02:08:37;;;;;;;55.85;24.48;;;4.70;99.90;;;;;;5102900;28;20054;-74
2022/01/19 02:11:30;;;;;;;54.45;22.13;;;;;;;;;;5092375;28;20128;-74
2022/01/19 02:22:04;;;;;;;60.08;22.67;;;;;;;;;;5090930;28;20469;-74
2022/01/19 02:24:41;;;;;;;59.00;22.73;;;4.50;99.90;;;;;;5108833;28;20043;-74
2022/01/19 02:28:59;;;;;;;71.22;23.48;;;;;;;;;;5104216;28;20515;-74
2022/01/19 02:40:23;;;;;;;68.05;25.35;;;;;;;;;;5092203;28;20044;-74
2022/01/19 02:43:09;;;;;;;75.03;26.27;;;;;;;;;;5102875;28;20044;-74
2022/01/19 02:51:08;;;;;;;69.45;24.88;;;;;;;;;;5091940;28;20491;-74
2022/01/19 02:53:36;;;;;;;80.15;24.88;;;4.80;99.90;;;;;;5097228;28;20036;-74
2022/01/19 02:56:12;;;;;;;77.28;23.73;;;4.60;99.90;;;;;;5112664;28;20497;-74
2022/01/19 02:58:51;;;;;;;75.80;26.30;;;4.60;99.90;;;;;;5096088;28;20081;-74
2022/01/19 03:09:32;;;;;;;91.68;26.27;;;;;;;;;;5100977;28;20044;-74
2022/01/19 03:11:58;;;;;;;92.57;25.50;;;;;;;;;;5095428;28;20039;-74
2022/01/19 03:14:24;;;;;;;80.78;25.90;;;;;;;;;;5086140;28;20040;-74
2022/01/19 03:16:50;;;;;;;104.35;27.42;;;;;;;;;;5093320;28;20044;-74
2022/01/19 03:19:16;;;;;;;89.50;28.42;;;;;;;;;;5115121;28;20043;-74
2022/01/19 03:21:43;;;;;;;98.57;25.60;;;;;;;;;;5115093;28;20126;-74
2022/01/19 03:24:11;;;;;;;85.80;25.42;;;;;;;;;;5095692;28;20036;-74
2022/01/19 03:26:37;;;;;;;88.80;25.15;;;;;;;;;;5095612;28;20051;-74
2022/01/19 03:29:03;;;;;;;73.95;23.90;;;;;;;;;;5078463;28;20063;-74
2022/01/19 03:31:29;;;;;;;71.45;22.70;;;3.70;99.90;;;;;;5095530;28;20392;-74
2022/01/19 03:33:55;;;;;;;69.68;21.25;;;;;;;;;;5096367;28;20035;-74
2022/01/19 03:36:21;;;;;;;86.25;22.80;;;;;;;;;;5115595;28;20035;-74
2022/01/19 03:38:47;;;;;;;70.15;22.20;;;;;;;;;;5096971;28;20050;-74
2022/01/19 03:41:13;;;;;;;82.07;24.08;;;;;;;;;;5115394;28;20118;-74
2022/01/19 03:43:39;;;;;;;88.07;25.95;;;5.30;99.90;;;;;;5083558;28;20036;-74
2022/01/19 03:46:13;;;;;;;81.90;24.08;;;;;;;;;;5077966;28;20047;-74
2022/01/19 03:48:45;;;;;;;83.90;23.88;;;;;;;;;;5108276;28;20064;-74
2022/01/19 03:51:11;;;;;;;92.68;24.60;;;;;;;;;;5115261;28;20040;-74
2022/01/19 03:53:38;;;;;;;85.30;23.90;;;4.40;99.90;;;;;;5085260;28;20044;-74
2022/01/19 03:56:04;;;;;;;83.60;24.10;;;;;;;;;;5094861;28;20044;-74
2022/01/19 03:58:30;;;;;;;89.18;23.50;;;;;;;;;;5100571;28;20131;-74
2022/01/19 04:00:58;;;;;;;82.90;22.63;;;;;;;;;;5094704;28;20040;-74
2022/01/19 04:03:39;;;;;;;90.15;24.70;;;4.40;99.90;;;;;;5086440;28;20081;-74
2022/01/19 04:06:22;;;;;;;79.80;24.50;;;;;;;;;;5097891;28;20047;-74
2022/01/19 04:08:48;;;;;;;96.25;24.95;;;;;;;;;;5108033;28;20480;-74
2022/01/19 04:11:17;;;;;;;85.57;23.13;;;;;;;;;;5097380;28;20047;-74
2022/01/19 04:14:28;;;;;;;90.35;23.02;;;;;;;;;;5103919;28;20093;-74
2022/01/19 04:16:29;;;;;;;75.72;21.88;;;;;;;;;;5084008;28;20048;-74
2022/01/19 04:19:08;;;;;;;68.85;21.90;;;;;;;;;;5101315;28;20434;-74
2022/01/19 04:21:34;;;;;;;77.70;22.35;;;;;;;;;;5094115;28;20443;-74
2022/01/19 04:24:01;;;;;;;71.82;21.10;;;;;;;;;;5105663;28;20084;-74
2022/01/19 04:26:27;;;;;;;75.00;22.15;;;;;;;;;;5114345;28;20051;-74
2022/01/19 04:28:53;;;;;;;81.30;21.92;;;;;;;;;;5088094;28;20055;-78
2022/01/19 04:31:19;;;;;;;74.50;21.30;;;;;;;;;;5114557;28;20032;-74
2022/01/19 04:33:45;;;;;;;71.50;24.02;;;;;;;;;;5108772;28;20043;-74
2022/01/19 04:44:54;;;;;;;71.50;20.90;;;;;;;;;;5103538;28;20055;-73
2022/01/19 04:48:11;;;;;;;63.63;21.77;;;;;;;;;;5098850;28;20040;-74
2022/01/19 05:04:20;;;;;;;68.45;21.00;;;;;;;;;;5098095;28;20032;-73
2022/01/19 05:06:51;;;;;;;66.30;21.00;;;;;;;;;;5113604;28;20058;-73
2022/01/19 05:14:36;;;;;;;70.55;22.10;;;;;;;;;;5103293;28;20480;-73
2022/01/19 05:17:02;;;;;;;63.03;22.27;;;4.30;99.90;;;;;;5093378;28;20487;-74
2022/01/19 05:19:29;;;;;;;84.15;23.30;;;;;;;;;;5100045;28;20118;-74
2022/01/19 05:21:55;;;;;;;72.90;24.30;;;;;;;;;;5095931;28;20045;-74
2022/01/19 05:24:21;;;;;;;70.20;21.70;;;;;;;;;;5097885;28;20047;-74
2022/01/19 05:26:50;;;;;;;67.07;22.33;;;;;;;;;;5076362;28;20048;-74
2022/01/19 05:29:17;;;;;;;78.22;22.67;;;;;;;;;;5092076;28;20048;-73
2022/01/19 05:31:43;;;;;;;83.65;24.17;;;4.60;99.90;;;;;;5092829;28;20075;-74
2022/01/19 05:34:09;;;;;;;70.07;22.30;;;;;;;;;;5098862;28;20071;-74
2022/01/19 05:36:35;;;;;;;74.70;23.50;;;;;;;;;;5093268;28;20038;-75
2022/01/19 05:39:04;;;;;;;79.35;23.35;;;;;;;;;;5101421;28;20109;-74
2022/01/19 05:41:30;;;;;;;92.40;26.30;;;;;;;;;;5091274;28;20543;-74
2022/01/19 05:43:57;;;;;;;74.68;23.85;;;;;;;;;;5092016;28;20040;-74
2022/01/19 05:46:23;;;;;;;86.95;25.35;;;;;;;;;;5075467;28;20488;-74
2022/01/19 05:48:49;;;;;;;81.18;24.27;;;;;;;;;;5092292;28;20035;-74
2022/01/19 05:51:15;;;;;;;79.32;25.60;;;;;;;;;;5092468;28;20032;-74
2022/01/19 05:53:41;;;;;;;78.65;23.75;;;;;;;;;;5092331;28;20036;-74
2022/01/19 05:56:08;;;;;;;79.32;26.25;;;;;;;;;;5092510;28;20128;-74
2022/01/19 05:58:34;;;;;;;79.85;24.00;;;;;;;;;;5093076;28;20043;-74
2022/01/19 06:01:00;;;;;;;70.43;22.55;;;;;;;;;;5092659;28;20075;-74
2022/01/19 06:03:26;;;;;;;73.65;24.80;;;;;;;;;;5092365;28;20575;-74
2022/01/19 06:05:53;;;;;;;74.05;25.50;;;;;;;;;;5092296;28;20488;-75
2022/01/19 06:08:40;;;;;;;76.45;24.90;;;;;;;;;;5092380;28;20040;-74
2022/01/19 06:11:05;;;;;;;78.72;24.27;;;;;;;;;;5092436;28;20093;-74
2022/01/19 06:13:30;;;;;;;74.97;25.75;;;3.90;99.90;;;;;;5092215;28;20047;-74
2022/01/19 06:15:56;;;;;;;82.20;25.80;;;;;;;;;;5092532;28;20198;-74
2022/01/19 06:18:23;;;;;;;72.78;25.52;;;;;;;;;;5092447;28;20043;-74
2022/01/19 06:20:49;;;;;;;73.30;24.20;;;4.90;99.90;;;;;;5092410;28;20048;-74
2022/01/19 06:23:15;;;;;;;75.07;25.05;;;;;;;;;;5092283;28;20040;-74
2022/01/19 06:25:41;;;;;;;71.90;24.65;;;;;;;;;;5092094;28;20554;-74
2022/01/19 06:28:07;;;;;;;78.32;24.38;;;;;;;;;;5091995;28;20056;-74
2022/01/19 06:30:34;;;;;;;74.78;24.25;;;;;;;;;;5075643;28;20044;-74
2022/01/19 06:33:00;;;;;;;81.75;26.17;;;;;;;;;;5092109;28;20040;-74
2022/01/19 06:35:26;;;;;;;64.03;24.10;;;;;;;;;;5075129;28;20044;-74
2022/01/19 06:37:52;;;;;;;65.85;23.83;;;;;;;;;;5092025;28;20052;-74
2022/01/19 06:40:20;;;;;;;73.30;25.15;;;4.30;99.90;;;;;;5092010;28;20097;-74
2022/01/19 06:42:47;;;;;;;74.97;26.58;;;;;;;;;;5092084;28;20036;-74
2022/01/19 06:45:13;;;;;;;71.35;25.73;;;4.30;99.90;;;;;;5092156;28;20062;-74
2022/01/19 06:47:40;;;;;;;79.18;25.33;;;;;;;;;;5092256;28;20040;-75
2022/01/19 06:50:08;;;;;;;64.57;25.02;;;4.40;99.90;;;;;;5091913;28;20040;-74
2022/01/19 06:52:34;;;;;;;72.07;24.83;;;;;;;;;;5092425;28;20040;-74
2022/01/19 06:55:00;;;;;;;70.72;25.83;;;;;;;;;;5096031;28;20048;-74
2022/01/19 06:57:26;;;;;;;63.05;24.50;;;;;;;;;;5096320;28;20133;-75
2022/01/19 06:59:52;;;;;;;62.42;25.67;;;;;;;;;;5062551;28;20043;-75
2022/01/19 07:02:19;;;;;;;63.95;26.70;;;;;;;;;;5079051;28;20046;-74
2022/01/19 07:04:49;;;;;;;61.72;25.30;;;;;;;;;;5095691;28;20075;-74
2022/01/19 07:07:16;;;;;;;60.13;23.85;;;4.50;99.90;;;;;;5096046;28;20449;-74
2022/01/19 07:09:42;;;;;;;77.30;28.05;;;;;;;;;;5079127;28;20028;-74
2022/01/19 07:12:09;;;;;;;59.65;24.33;;;4.20;99.90;;;;;;5095608;28;20044;-74
2022/01/19 07:14:35;;;;;;;64.80;27.25;;;;;;;;;;5095889;28;20055;-74
2022/01/19 07:17:01;;;;;;;66.57;25.08;;;;;;;;;;5095645;28;20131;-74
2022/01/19 07:19:28;;;;;;;70.32;26.83;;;;;;;;;;5095637;28;20052;-74
2022/01/19 07:21:54;;;;;;;78.57;26.25;;;;;;;;;;5095401;28;20480;-75
2022/01/19 07:24:20;;;;;;;67.93;26.67;;;;;;;;;;5095168;28;20101;-74
2022/01/19 07:26:46;;;;;;;70.00;26.83;;;;;;;;;;5095519;28;20452;-74
2022/01/19 07:29:14;;;;;;;70.78;27.30;;;;;;;;;;5078119;28;20055;-74
2022/01/19 07:31:41;;;;;;;76.60;27.55;;;4.60;99.90;;;;;;5095453;28;20120;-74
2022/01/19 07:34:07;;;;;;;77.50;28.48;;;;;;;;;;5095216;28;20142;-74
2022/01/19 07:36:33;;;;;;;70.68;29.30;;;;;;;;;;5095007;28;20492;-74
2022/01/19 07:38:59;;;;;;;68.43;27.10;;;;;;;;;;5095360;28;20101;-74
2022/01/19 07:41:25;;;;;;;70.88;27.98;;;;;;;;;;5078347;28;20112;-74
2022/01/19 07:43:52;;;;;;;66.68;26.67;;;;;;;;;;5078032;28;20036;-74
2022/01/19 07:46:18;;;;;;;72.32;27.55;;;;;;;;;;5094707;28;20040;-74
2022/01/19 07:48:44;;;;;;;70.00;27.33;;;;;;;;;;5078376;28;20390;-74
2022/01/19 07:51:10;;;;;;;71.20;26.48;;;;;;;;;;5094734;28;20036;-74
2022/01/19 07:53:37;;;;;;;75.32;27.35;;;;;;;;;;5078232;28;20035;-74
2022/01/19 07:56:03;;;;;;;65.80;27.90;;;4.70;99.90;;;;;;5094820;28;20507;-74
2022/01/19 07:58:30;;;;;;;68.47;27.77;;;;;;;;;;5094948;28;20109;-74
2022/01/19 08:00:56;;;;;;;70.38;27.25;;;;;;;;;;5094802;28;20047;-74
2022/01/19 08:03:22;;;;;;;64.07;27.55;;;;;;;;;;5094114;28;20404;-74
2022/01/19 08:05:48;;;;;;;68.90;27.10;;;;;;;;;;5094465;28;20040;-74
2022/01/19 08:08:14;;;;;;;66.00;26.17;;;;;;;;;;5094445;28;20046;-74
2022/01/19 08:10:42;;;;;;;64.55;27.00;;;;;;;;;;5094413;28;20488;-74
2022/01/19 08:13:09;;;;;;;65.72;27.48;;;4.60;99.90;;;;;;5094582;28;20434;-74
2022/01/19 08:15:36;;;;;;;58.95;24.50;;;;;;;;;;5077574;28;20048;-74
2022/01/19 08:18:02;;;;;;;69.18;27.40;;;3.80;99.90;;;;;;5077713;28;20543;-74
2022/01/19 08:20:28;;;;;;;63.88;25.33;;;;;;;;;;5061085;28;20051;-74
2022/01/19 08:22:54;;;;;;;69.32;26.08;;;;;;;;;;5094094;28;20491;-74
2022/01/19 08:25:20;;;;;;;66.05;24.67;;;4.70;99.90;;;;;;5094076;28;20048;-74
2022/01/19 08:27:46;;;;;;;61.60;25.85;;;;;;;;;;5093999;28;20035;-74
2022/01/19 08:30:13;;;;;;;62.28;26.13;;;;;;;;;;5093934;28;20436;-74
2022/01/19 08:32:39;;;;;;;60.47;26.52;;;;;;;;;;5093999;28;20043;-74
2022/01/19 08:35:07;;;;;;;63.60;24.83;;;;;;;;;;5093955;28;20044;-74
2022/01/19 08:37:33;;;;;;;61.67;25.35;;;;;;;;;;5093955;28;20036;-74
2022/01/19 08:39:59;;;;;;;61.78;25.88;;;;;;;;;;5077061;28;20480;-74
2022/01/19 08:42:25;;;;;;;67.93;25.80;;;;;;;;;;5093900;28;20130;-74
2022/01/19 08:44:52;;;;;;;59.13;25.80;;;;;;;;;;5077147;28;20051;-74
2022/01/19 08:47:18;;;;;;;59.40;25.20;;;;;;;;;;5094042;28;20040;-74
2022/01/19 08:49:44;;;;;;;67.68;25.38;;;;;;;;;;5093732;28;20480;-74
2022/01/19 08:52:10;;;;;;;64.57;27.08;;;;;;;;;;5093904;28;20036;-75
2022/01/19 08:54:36;;;;;;;75.10;27.08;;;;;;;;;;5093789;28;20079;-75
2022/01/19 08:57:04;;;;;;;63.42;25.52;;;5.00;99.90;;;;;;5093775;28;20044;-75
2022/01/19 08:59:31;;;;;;;65.45;26.15;;;4.70;99.90;;;;;;5093776;28;20434;-75
2022/01/19 09:01:58;;;;;;;60.78;25.23;;;;;;;;;;5093613;28;20048;-75
2022/01/19 09:04:25;;;;;;;66.88;26.45;;;4.80;99.90;;;;;;5093461;28;20050;-75
2022/01/19 09:06:51;;;;;;;63.47;25.98;;;;;;;;;;5076504;28;20071;-75
2022/01/19 09:09:17;;;;;;;61.15;25.67;;;;;;;;;;5093812;28;20102;-75
2022/01/19 09:11:43;;;;;;;64.95;26.63;;;;;;;;;;5093231;28;20040;-75
2022/01/19 09:14:10;;;;;;;62.20;25.95;;;;;;;;;;5093196;28;20040;-75
2022/01/19 09:16:36;;;;;;;66.13;25.70;;;4.90;99.90;;;;;;5092775;28;20040;-75
2022/01/19 09:19:04;;;;;;;68.35;27.58;;;5.10;99.90;;;;;;5093536;28;20039;-74
2022/01/19 09:21:31;;;;;;;63.22;25.45;;;5.10;99.90;;;;;;5093156;28;20064;-74
2022/01/19 09:23:57;;;;;;;63.15;27.00;;;;;;;;;;5093148;28;20047;-75
2022/01/19 09:26:23;;;;;;;62.85;27.52;;;;;;;;;;5092818;28;20044;-75
2022/01/19 09:28:49;;;;;;;71.85;28.08;;;;;;;;;;5092723;28;20186;-75
2022/01/19 09:31:18;;;;;;;66.00;28.13;;;;;;;;;;5092939;28;20066;-75
2022/01/19 09:33:52;;;;;;;64.28;28.40;;;;;;;;;;5093046;28;20476;-74
2022/01/19 09:36:31;;;;;;;69.97;28.17;;;;;;;;;;5093023;28;20381;-74
2022/01/19 09:38:57;;;;;;;70.80;27.85;;;5.30;99.90;;;;;;5092711;28;20089;-75
2022/01/19 09:41:23;;;;;;;70.60;28.38;;;;;;;;;;5092784;28;20539;-75
2022/01/19 09:43:50;;;;;;;66.15;28.20;;;;;;;;;;5092760;28;20040;-75
2022/01/19 09:46:16;;;;;;;66.30;28.33;;;;;;;;;;5092551;28;20040;-75
2022/01/19 09:48:42;;;;;;;74.00;28.55;;;;;;;;;;5092474;28;20472;-75
2022/01/19 09:51:08;;;;;;;82.13;31.77;;;;;;;;;;5075934;28;20438;-75
2022/01/19 09:53:34;;;;;;;74.68;29.55;;;;;;;;;;5092413;28;20051;-75
2022/01/19 09:56:02;;;;;;;74.20;29.67;;;;;;;;;;5092471;28;20051;-75
2022/01/19 09:58:29;;;;;;;73.63;29.75;;;;;;;;;;5092767;28;20097;-75
2022/01/19 10:00:55;;;;;;;76.70;30.00;;;;;;;;;;5075841;28;20461;-75
2022/01/19 10:03:26;;;;;;;78.72;31.55;;;5.30;99.90;;;;;;5092641;28;20101;-75
2022/01/19 10:05:55;;;;;;;69.22;29.02;;;;;;;;;;5075559;28;20396;-75
2022/01/19 10:08:40;;;;;;;83.40;31.15;;;5.30;99.90;;;;;;5092504;28;20066;-75
2022/01/19 10:11:10;;;;;;;75.05;31.17;;;;;;;;;;5092534;28;20028;-75
2022/01/19 10:17:02;;;;;;;68.55;30.35;;;;;;;;;;5092695;28;20063;-75
2022/01/19 10:19:49;;;;;;;74.18;30.58;;;5.50;99.90;;;;;;5075373;28;20040;-75
2022/01/19 10:22:20;;;;;;;77.03;31.40;;;5.30;99.90;;;;;;5092228;28;20530;-74
2022/01/19 10:24:51;;;;;;;78.68;31.83;;;5.20;99.90;;;;;;5092274;28;20047;-74
2022/01/19 10:27:17;;;;;;;77.90;29.05;;;;;;;;;;5095145;28;20043;-74
2022/01/19 10:29:44;;;;;;;72.05;31.02;;;;;;;;;;5098759;28;20048;-74
2022/01/19 10:32:10;;;;;;;72.13;30.33;;;;;;;;;;5099000;28;20039;-74
2022/01/19 10:34:36;;;;;;;80.88;31.92;;;;;;;;;;5098933;28;20047;-74
2022/01/19 10:37:04;;;;;;;75.13;30.05;;;;;;;;;;5082106;28;20044;-74
2022/01/19 10:39:46;;;;;;;80.68;29.67;;;5.70;99.90;;;;;;5098957;28;20491;-74
2022/01/19 10:42:17;;;;;;;78.25;30.40;;;5.50;99.90;;;;;;5098757;28;20438;-74
2022/01/19 10:44:52;;;;;;;77.70;30.65;;;5.60;99.90;;;;;;5082034;28;20399;-74
2022/01/19 10:47:18;;;;;;;68.35;30.00;;;;;;;;;;5098722;28;20055;-74
2022/01/19 10:49:54;;;;;;;70.55;29.27;;;5.70;99.90;;;;;;5081932;28;20059;-74
2022/01/19 10:52:28;;;;;;;72.13;28.70;;;5.60;99.90;;;;;;5098714;28;20104;-74
2022/01/19 10:54:57;;;;;;;67.63;27.25;;;;;;;;;;5082014;28;20035;-74
2022/01/19 10:57:23;;;;;;;69.40;28.13;;;;;;;;;;5098666;28;20119;-74
2022/01/19 10:59:50;;;;;;;72.82;28.27;;;;;;;;;;5081621;28;20047;-74
2022/01/19 11:02:18;;;;;;;71.68;27.48;;;5.90;99.90;;;;;;5098508;28;20534;-74
2022/01/19 11:04:45;;;;;;;63.33;25.35;;;6.20;99.90;;;;;;5098547;28;20076;-74
2022/01/19 11:07:15;;;;;;;60.45;24.15;;;6.40;99.90;;;;;;5098502;28;20032;-74
2022/01/19 11:09:46;;;;;;;55.78;23.38;;;;;;;;;;5081471;28;20093;-74
2022/01/19 11:12:16;;;;;;;51.90;22.92;;;;;;;;;;5110261;27;20047;-73
2022/01/19 11:14:43;;;;;;;55.65;22.95;;;6.60;99.90;;;;;;5102424;28;20484;-74
2022/01/19 11:17:10;;;;;;;57.92;24.45;;;;;;;;;;5086182;28;20172;-73
2022/01/19 11:19:46;;;;;;;55.08;24.15;;;6.80;99.90;;;;;;5114336;27;20038;-72
2022/01/19 11:22:52;;;;;;;57.97;24.98;;;6.70;99.90;;;;;;5115139;27;20120;-72
2022/01/19 11:25:25;;;;;;;66.47;23.98;;;;;;;;;;5122390;27;20572;-72
2022/01/19 11:27:51;;;;;;;57.55;21.77;;;;;;;;;;5118549;28;20039;-72
2022/01/19 11:30:28;;;;;;;40.78;18.15;;;;;;;;;;5135349;27;20113;-72
2022/01/19 11:33:25;;;;;;;35.03;13.77;;;6.50;99.90;;;;;;5119043;27;20046;-74
2022/01/19 11:36:05;;;;;;;26.95;10.90;;;6.40;99.90;;;;;;5111673;28;20042;-74
2022/01/19 11:38:46;;;;;;;28.67;10.50;;;6.40;99.90;;;;;;5099968;28;20048;-74
2022/01/19 11:41:15;;;;;;;26.45;10.90;;;;;;;;;;5089777;28;20105;-74
2022/01/19 11:43:56;;;;;;;25.33;10.60;;;6.30;99.90;;;;;;5095473;28;20040;-74
2022/01/19 11:46:39;;;;;;;24.00;10.15;;;6.40;99.90;;;;;;5104470;28;20039;-74
2022/01/19 11:49:11;;;;;;;21.65;9.73;;;6.30;99.90;;;;;;5116640;28;20046;-74
2022/01/19 11:51:44;;;;;;;27.90;9.02;;;6.40;99.90;;;;;;5104354;28;20036;-74
2022/01/19 11:54:15;;;;;;;;;;;6.50;99.90;;;;;;5102910;28;20107;-74
2022/01/19 11:57:00;;;;;;;28.27;10.63;;;6.40;99.90;;;;;;5104319;28;19916;-74
2022/01/19 11:59:31;;;;;;;29.17;9.55;;;;;;;;;;5094831;28;20480;-75
2022/01/19 12:02:24;;;;;;;32.53;11.45;;;6.60;99.90;;;;;;5088613;28;20039;-74
2022/01/19 12:04:54;;;;;;;35.28;10.63;;;6.40;99.90;;;;;;5083773;28;20044;-75
2022/01/19 12:07:42;;;;;;;25.42;9.60;;;6.30;99.90;;;;;;5109194;28;20039;-74
2022/01/19 12:10:20;;;;;;;25.33;9.20;;;;;;;;;;5114556;28;20047;-74
2022/01/19 12:16:11;;;;;;;;;;;6.40;99.90;;;;;;5096388;28;20055;-74
2022/01/19 12:18:45;;;;;;;25.42;9.20;;;6.20;99.90;;;;;;5114909;28;20415;-74
2022/01/19 12:21:14;;;;;;;27.05;8.55;;;6.40;99.90;;;;;;5110360;28;20052;-74
2022/01/19 12:23:41;;;;;;;26.00;9.40;;;6.40;99.90;;;;;;5077515;28;20036;-74
2022/01/19 12:26:09;;;;;;;23.60;9.02;;;6.30;99.90;;;;;;5061750;28;20484;-74
2022/01/19 12:28:43;;;;;;;26.95;8.82;;;6.50;99.90;;;;;;5098030;28;20494;-74
2022/01/19 12:31:24;;;;;;;26.67;9.95;;;6.60;99.90;;;;;;5113849;28;20044;-73
2022/01/19 12:34:10;;;;;;;23.23;8.65;;;6.70;99.90;;;;;;5094494;28;20426;-73
2022/01/19 12:36:47;;;;;;;28.45;8.45;;;6.50;99.90;;;;;;5097877;28;20048;-73
2022/01/19 12:39:25;;;;;;;22.17;8.32;;;6.60;99.90;;;;;;5106117;28;20054;-73
2022/01/19 12:42:19;;;;;;;22.83;7.97;;;6.50;99.90;;;;;;5099080;28;20044;-73
2022/01/19 12:44:45;;;;;;;23.25;7.63;;;;;;;;;;5114254;28;20043;-73
2022/01/19 12:47:29;;;;;;;27.60;8.80;;;6.80;99.90;;;;;;5102955;28;20032;-73
2022/01/19 12:50:04;;;;;;;25.48;7.72;;;;;;;;;;5094942;28;20066;-73
2022/01/19 12:52:32;;;;;;;25.48;8.30;;;6.50;99.90;;;;;;5103569;28;20043;-73
2022/01/19 12:55:11;;;;;;;21.33;7.97;;;6.50;99.90;;;;;;5093927;28;20105;-73
2022/01/19 12:57:37;;;;;;;31.95;7.85;;;;;;;;;;5077779;28;20047;-73
2022/01/19 13:00:07;;;;;;;22.13;7.25;;;6.10;99.90;;;;;;5095168;28;20081;-73
2022/01/19 13:02:34;;;;;;;27.45;8.73;;;6.70;99.90;;;;;;5104488;28;20072;-73
2022/01/19 13:05:09;;;;;;;22.05;7.47;;;6.70;99.90;;;;;;5086812;28;20149;-73
2022/01/19 13:07:39;;;;;;;25.40;7.22;;;7.10;99.90;;;;;;5103101;28;20078;-73
2022/01/19 13:10:34;;;;;;;24.88;7.90;;;;;;;;;;5093564;28;20032;-73
2022/01/19 13:15:39;;;;;;;19.52;8.07;;;;;;;;;;5096583;28;20104;-73
2022/01/19 13:18:05;;;;;;;23.27;8.07;;;;;;;;;;5101249;28;20044;-74
2022/01/19 13:20:32;;;;;;;18.85;8.10;;;;;;;;;;5093100;28;20047;-74
2022/01/19 13:22:58;;;;;;;28.92;8.27;;;;;;;;;;5103548;28;20122;-74
2022/01/19 13:25:28;;;;;;;19.42;7.28;;;6.30;99.90;;;;;;5110851;28;20086;-74
2022/01/19 13:27:56;;;;;;;22.52;7.65;;;6.50;99.90;;;;;;5102806;28;20452;-74
2022/01/19 13:30:24;;;;;;;28.90;7.97;;;6.50;99.90;;;;;;5113158;28;20067;-74
2022/01/19 13:32:51;;;;;;;29.63;8.30;;;6.50;99.90;;;;;;5104600;28;20036;-74
2022/01/19 13:35:18;;;;;;;29.88;7.68;;;6.20;99.90;;;;;;5092896;28;20039;-74
2022/01/19 13:37:54;;;;;;;27.05;7.80;;;6.30;99.90;;;;;;5105883;28;20043;-74
2022/01/19 13:40:23;;;;;;;28.67;7.88;;;6.40;99.90;;;;;;5092978;28;20115;-74
2022/01/19 13:42:56;;;;;;;26.33;8.00;;;6.40;99.90;;;;;;5099841;28;20054;-74
2022/01/19 13:45:49;;;;;;;30.40;8.23;;;6.50;99.90;;;;;;5113030;28;20046;-74
2022/01/19 13:48:28;;;;;;;23.60;8.45;;;6.40;99.90;;;;;;5100597;28;20438;-74
2022/01/19 13:51:01;;;;;;;28.88;7.75;;;6.40;99.90;;;;;;5092992;28;20044;-74
2022/01/19 13:53:29;;;;;;;29.48;8.82;;;6.40;99.90;;;;;;5087170;28;20391;-74
2022/01/19 13:55:57;;;;;;;27.05;8.57;;;6.30;99.90;;;;;;5113259;28;20391;-74
2022/01/19 13:58:34;;;;;;;27.38;8.45;;;6.30;99.90;;;;;;5105896;28;20126;-74
2022/01/19 14:01:13;;;;;;;32.13;9.13;;;6.30;99.90;;;;;;5112872;28;20165;-74
2022/01/19 14:03:55;;;;;;;40.28;10.55;;;6.80;99.90;;;;;;5100488;28;20054;-74
2022/01/19 14:06:21;;;;;;;23.92;8.38;;;;;;;;;;5083408;28;20067;-74
2022/01/19 14:08:47;;;;;;;30.67;9.30;;;;;;;;;;5104667;28;20055;-74
2022/01/19 14:11:26;;;;;;;22.83;7.85;;;;;;;;;;5095530;28;20078;-74
2022/01/19 14:14:10;;;;;;;27.23;9.15;;;6.40;99.90;;;;;;5099606;28;20119;-74
2022/01/19 14:16:42;;;;;;;31.67;9.18;;;6.30;99.90;;;;;;5077145;28;20140;-74
2022/01/19 14:19:27;;;;;;;27.70;9.82;;;6.20;99.90;;;;;;5098893;28;20051;-74
2022/01/19 14:22:17;;;;;;;27.45;8.85;;;6.40;99.90;;;;;;5092333;28;20554;-74
2022/01/19 14:24:54;;;;;;;31.05;9.48;;;7.00;99.90;;;;;;5110885;28;20065;-74
2022/01/19 14:27:23;;;;;;;30.98;9.55;;;6.40;99.90;;;;;;5112536;28;20044;-73
2022/01/19 14:30:07;;;;;;;36.60;10.20;;;6.50;99.90;;;;;;5110688;28;20058;-74
2022/01/19 14:32:43;;;;;;;32.53;10.75;;;6.80;99.90;;;;;;5112620;28;20476;-74
2022/01/19 14:35:19;;;;;;;32.65;11.57;;;6.70;99.90;;;;;;5099557;28;20042;-74
2022/01/19 14:38:13;;;;;;;37.97;11.65;;;6.60;99.90;;;;;;5084096;28;20089;-73
2022/01/19 14:40:50;;;;;;;40.40;11.15;;;6.80;99.90;;;;;;5092081;28;20496;-73
2022/01/19 14:43:19;;;;;;;31.63;11.75;;;6.60;99.90;;;;;;5094555;28;20083;-73
2022/01/19 14:45:56;;;;;;;36.70;11.65;;;6.30;99.90;;;;;;5112492;28;20039;-73
2022/01/19 14:48:26;;;;;;;44.70;12.13;;;6.50;99.90;;;;;;5109264;28;20525;-73
2022/01/19 14:50:52;;;;;;;37.17;12.20;;;;;;;;;;5102354;28;20035;-73
2022/01/19 14:53:18;;;;;;;40.35;13.45;;;;;;;;;;5110878;28;20046;-73
2022/01/19 14:55:45;;;;;;;44.30;12.77;;;;;;;;;;5092059;28;20093;-72
2022/01/19 14:58:12;;;;;;;47.00;12.75;;;6.80;99.90;;;;;;5092077;28;20484;-73
2022/01/19 15:00:41;;;;;;;43.85;11.70;;;6.80;99.90;;;;;;5111788;28;20047;-71
2022/01/19 15:03:07;;;;;;;42.58;11.82;;;;;;;;;;5101714;28;20135;-71
2022/01/19 15:05:38;;;;;;;42.70;12.27;;;6.90;99.90;;;;;;5110099;28;20050;-71
2022/01/19 15:08:05;;;;;;;50.65;12.40;;;7.10;99.90;;;;;;5099530;28;20369;-71
2022/01/19 15:10:32;;;;;;;47.15;12.55;;;;;;;;;;5082967;28;20036;-70